createdAt,value
2019-02-28T00:00:09.914Z,-1.05
2019-02-28T00:05:07.798Z,-0.98
2019-02-28T00:10:07.230Z,-1.13
2019-02-28T00:15:08.983Z,-1.17
2019-02-28T00:20:07.887Z,-1.55
2019-02-28T00:24:06.996Z,-1.73
2019-02-28T00:29:07.059Z,-1.35
2019-02-28T00:34:06.677Z,-1.38
2019-02-28T00:39:06.888Z,-1.41
2019-02-28T00:44:06.926Z,-1.42
2019-02-28T00:49:06.112Z,-1.56
2019-02-28T00:54:08.496Z,-1.34
2019-02-28T00:58:07.420Z,-1.38
2019-02-28T01:03:06.814Z,-1.43
2019-02-28T01:08:06.804Z,-1.25
2019-02-28T01:13:06.181Z,-1.35
2019-02-28T01:18:07.012Z,-1.48
2019-02-28T01:23:06.979Z,-1.26
2019-02-28T01:28:07.004Z,-1.27
2019-02-28T01:32:08.170Z,-1.19
2019-02-28T01:33:06.335Z,-1.19
2019-02-28T01:37:07.331Z,-1.15
2019-02-28T01:42:07.831Z,-1.27
2019-02-28T01:47:07.490Z,-1.28
2019-02-28T01:52:11.435Z,-1.28
2019-02-28T01:57:10.729Z,-1.38
2019-02-28T02:02:09.353Z,-1.5
2019-02-28T02:12:07.417Z,-1.52
2019-02-28T02:16:06.812Z,-1.64
2019-02-28T02:21:08.027Z,-1.72
2019-02-28T02:26:08.339Z,-1.63
2019-02-28T02:31:07.474Z,-1.87
2019-02-28T02:36:06.589Z,-1.88
2019-02-28T02:41:09.795Z,-1.28
2019-02-28T02:45:12.559Z,-1.16
2019-02-28T02:46:08.774Z,-1.16
2019-02-28T02:50:07.988Z,-1.25
2019-02-28T02:55:07.080Z,-1.53
2019-02-28T03:00:15.927Z,-1.68
2019-02-28T03:05:07.091Z,-1.86
2019-02-28T03:10:08.057Z,-2.23
2019-02-28T03:15:07.748Z,-2.37
2019-02-28T03:20:09.722Z,-2.37
2019-02-28T03:25:06.893Z,-2.3
2019-02-28T03:29:09.856Z,-1.89
2019-02-28T03:34:12.684Z,-1.98
2019-02-28T03:39:07.968Z,-1.78
2019-02-28T03:44:06.091Z,-1.61
2019-02-28T03:49:13.433Z,-1.92
2019-02-28T03:54:06.645Z,-2.2
2019-02-28T03:59:08.043Z,-2.27
2019-02-28T04:04:10.708Z,-2.37
2019-02-28T04:08:07.504Z,-2.19
2019-02-28T04:13:06.931Z,-2.08
2019-02-28T04:18:09.439Z,-2.05
2019-02-28T04:23:06.533Z,-1.67
2019-02-28T04:28:07.514Z,-1.39
2019-02-28T04:33:06.355Z,-1.53
2019-02-28T04:38:07.433Z,-1.67
2019-02-28T04:42:07.899Z,-1.94
2019-02-28T04:47:06.749Z,-2.13
2019-02-28T04:52:07.062Z,-1.9
2019-02-28T04:57:06.168Z,-1.99
2019-02-28T05:02:06.725Z,-2.05
2019-02-28T05:07:07.590Z,-2.33
2019-02-28T05:12:06.206Z,-2.48
2019-02-28T05:17:07.640Z,-2.26
2019-02-28T05:21:07.740Z,-1.13
2019-02-28T05:26:07.419Z,-0.84
2019-02-28T05:31:07.442Z,-0.49
2019-02-28T05:36:06.483Z,-0.47
2019-02-28T05:41:07.962Z,1.01
2019-02-28T05:46:06.521Z,2.4
2019-02-28T05:51:07.449Z,2.96
2019-02-28T05:56:06.559Z,2.7
2019-02-28T06:01:08.677Z,2.99
2019-02-28T06:05:13.561Z,2.46
2019-02-28T06:10:06.181Z,1.68
2019-02-28T06:15:08.434Z,1.26
2019-02-28T06:20:06.244Z,0.71
2019-02-28T06:25:07.317Z,0.79
2019-02-28T06:30:08.639Z,0.33
2019-02-28T06:35:07.216Z,0.37
2019-02-28T06:40:06.878Z,0.21
2019-02-28T06:44:06.888Z,0.67
2019-02-28T06:49:08.189Z,2.53
2019-02-28T06:54:09.516Z,3.08
2019-02-28T06:59:06.658Z,4.51
2019-02-28T07:04:07.037Z,5.83
2019-02-28T07:09:07.569Z,6.66
2019-02-28T07:14:06.612Z,6.8
2019-02-28T07:19:07.131Z,7.05
2019-02-28T07:23:07.285Z,7.37
2019-02-28T07:28:06.343Z,7.68
2019-02-28T07:33:11.589Z,7.99
2019-02-28T07:38:06.683Z,8.21
2019-02-28T07:43:11.974Z,8.49
2019-02-28T07:48:07.057Z,8.7
2019-02-28T07:53:08.719Z,9.01
2019-02-28T07:58:06.635Z,8.95
2019-02-28T08:02:06.092Z,8.91
2019-02-28T08:07:08.018Z,9.01
2019-02-28T08:12:06.652Z,9.3
2019-02-28T08:17:10.715Z,9.57
2019-02-28T08:22:06.687Z,9.81
2019-02-28T08:27:07.758Z,10
2019-02-28T08:31:07.026Z,10
2019-02-28T08:32:07.791Z,10
2019-02-28T08:36:13.478Z,10.1
2019-02-28T08:41:07.271Z,10.14
2019-02-28T08:46:14.370Z,10.26
2019-02-28T08:51:06.362Z,10.46
2019-02-28T08:56:07.523Z,10.52
2019-02-28T09:01:06.606Z,10.57
2019-02-28T09:06:07.455Z,10.67
2019-02-28T09:11:06.986Z,10.81
2019-02-28T09:15:09.556Z,11.07
2019-02-28T09:20:11.810Z,11.1
2019-02-28T09:25:07.840Z,11.34
2019-02-28T09:30:09.479Z,11.34
2019-02-28T09:35:15.247Z,11.08
2019-02-28T09:40:07.779Z,11.68
2019-02-28T09:50:06.886Z,11.99
2019-02-28T09:54:07.986Z,12.41
2019-02-28T09:59:07.050Z,12.31
2019-02-28T10:04:07.280Z,12.08
2019-02-28T10:09:08.707Z,12.37
2019-02-28T10:14:07.434Z,12.88
2019-02-28T10:19:06.513Z,12.55
2019-02-28T10:24:07.116Z,12.82
2019-02-28T10:28:07.166Z,12.93
2019-02-28T10:33:06.297Z,12.7
2019-02-28T10:38:06.418Z,12.29
2019-02-28T10:43:07.885Z,12.2
2019-02-28T10:48:07.428Z,12.07
2019-02-28T10:53:06.482Z,12.52
2019-02-28T10:57:08.045Z,12.71
2019-02-28T10:58:06.243Z,12.71
2019-02-28T11:02:07.335Z,12.95
2019-02-28T11:07:06.383Z,13.99
2019-02-28T11:12:06.826Z,13.1
2019-02-28T11:17:14.584Z,12.59
2019-02-28T11:22:07.523Z,12.57
2019-02-28T11:27:06.574Z,12.99
2019-02-28T11:32:06.465Z,12.56
2019-02-28T11:37:12.695Z,13.61
2019-02-28T11:41:06.375Z,13.62
2019-02-28T11:46:07.296Z,14.45
2019-02-28T11:51:07.352Z,14.14
2019-02-28T11:56:06.425Z,14.55
2019-02-28T12:01:09.938Z,13.92
2019-02-28T12:06:06.918Z,13.09
2019-02-28T12:11:07.552Z,13.34
2019-02-28T12:16:07.377Z,13.79
2019-02-28T12:20:07.454Z,13.73
2019-02-28T12:25:09.144Z,13.52
2019-02-28T12:30:07.432Z,13.63
2019-02-28T12:35:06.218Z,14.08
2019-02-28T12:40:11.594Z,13.29
2019-02-28T12:45:10.469Z,13.15
2019-02-28T12:50:06.329Z,12.93
2019-02-28T12:54:06.784Z,12.85
2019-02-28T12:59:09.895Z,13.25
2019-02-28T13:04:06.973Z,13.35
2019-02-28T13:09:06.823Z,13.25
2019-02-28T13:14:06.634Z,13.12
2019-02-28T13:19:06.671Z,12.92
2019-02-28T13:23:07.298Z,12.99
2019-02-28T13:24:09.496Z,12.99
2019-02-28T13:28:06.697Z,13.18
2019-02-28T13:33:06.281Z,13.12
2019-02-28T13:38:06.194Z,13.12
2019-02-28T13:43:06.762Z,13.04
2019-02-28T13:48:06.382Z,13.08
2019-02-28T13:53:18.488Z,13.17
2019-02-28T13:58:06.423Z,13.25
2019-02-28T14:03:10.672Z,13.3
2019-02-28T14:07:07.474Z,13.43
2019-02-28T14:12:06.311Z,13.54
2019-02-28T14:17:06.961Z,13.52
2019-02-28T14:22:11.518Z,13.66
2019-02-28T14:27:07.220Z,13.19
2019-02-28T14:32:07.332Z,13.3
2019-02-28T14:37:06.529Z,13
2019-02-28T14:41:06.958Z,12.9
2019-02-28T14:46:07.145Z,12.73
2019-02-28T14:51:06.664Z,12.62
2019-02-28T14:56:08.544Z,12.46
2019-02-28T15:01:06.634Z,12.41
2019-02-28T15:06:06.755Z,12.26
2019-02-28T15:11:11.098Z,12.08
2019-02-28T15:15:08.644Z,12.03
2019-02-28T15:20:06.495Z,11.88
2019-02-28T15:25:06.212Z,11.74
2019-02-28T15:30:07.682Z,11.6
2019-02-28T15:35:07.021Z,11.44
2019-02-28T15:40:06.827Z,11.41
2019-02-28T15:45:07.963Z,11.16
2019-02-28T15:49:10.931Z,10.96
2019-02-28T15:54:06.970Z,10.75
2019-02-28T15:59:07.149Z,10.89
2019-02-28T16:04:06.418Z,10.83
2019-02-28T16:09:06.810Z,10.75
2019-02-28T16:14:14.269Z,10.67
2019-02-28T16:19:06.406Z,10.26
2019-02-28T16:23:06.543Z,10.27
2019-02-28T16:28:07.540Z,10.22
2019-02-28T16:33:06.798Z,10.19
2019-02-28T16:38:11.168Z,9.94
2019-02-28T16:43:06.280Z,9.6
2019-02-28T16:48:06.220Z,9.63
2019-02-28T16:53:06.320Z,9.62
2019-02-28T16:57:09.382Z,9.21
2019-02-28T17:02:07.048Z,9.27
2019-02-28T17:07:10.516Z,9.11
2019-02-28T17:12:06.729Z,9.06
2019-02-28T17:17:11.909Z,9.08
2019-02-28T17:22:07.009Z,8.88
2019-02-28T17:27:07.411Z,8.95
2019-02-28T17:31:11.470Z,8.78
2019-02-28T17:36:08.344Z,8.47
2019-02-28T17:41:07.219Z,8.55
2019-02-28T17:46:06.795Z,8.17
2019-02-28T17:51:07.332Z,8.09
2019-02-28T17:56:06.347Z,8.11
2019-02-28T18:01:06.521Z,8.13
2019-02-28T18:05:06.691Z,8.08
2019-02-28T18:10:06.706Z,8.05
2019-02-28T18:15:09.698Z,7.96
2019-02-28T18:20:06.252Z,7.61
2019-02-28T18:25:06.786Z,7.38
2019-02-28T18:30:08.979Z,7.46
2019-02-28T18:35:06.810Z,7.46
2019-02-28T18:39:08.041Z,7.63
2019-02-28T18:44:07.696Z,7.4
2019-02-28T18:49:07.303Z,7.2
2019-02-28T18:54:07.018Z,6.87
2019-02-28T18:59:06.443Z,6.6
2019-02-28T19:04:06.434Z,6.87
2019-02-28T19:09:06.454Z,6.79
2019-02-28T19:13:06.910Z,6.59
2019-02-28T19:18:06.889Z,6.13
2019-02-28T19:23:06.622Z,6.35
2019-02-28T19:28:07.277Z,6.52
2019-02-28T19:33:06.074Z,6.14
2019-02-28T19:38:06.474Z,5.95
2019-02-28T19:43:06.565Z,6.37
2019-02-28T19:48:06.954Z,6.15
2019-02-28T19:52:06.700Z,6.06
2019-02-28T19:57:06.994Z,6.05
2019-02-28T20:02:06.999Z,5.71
2019-02-28T20:07:07.026Z,5.2
2019-02-28T20:12:06.667Z,5.07
2019-02-28T20:17:06.696Z,5.21
2019-02-28T20:22:07.044Z,5.53
2019-02-28T20:26:07.114Z,5.68
2019-02-28T20:31:06.361Z,5.84
2019-02-28T20:36:06.702Z,5.48
2019-02-28T20:41:06.613Z,5.23
2019-02-28T20:46:07.316Z,5.82
2019-02-28T20:51:07.013Z,6.55
2019-02-28T20:55:07.540Z,6.43
2019-02-28T20:56:06.624Z,6.43
2019-02-28T21:00:08.187Z,6.99
2019-02-28T21:05:07.731Z,6.49
2019-02-28T21:10:06.736Z,5.93
2019-02-28T21:15:07.599Z,5.72
2019-02-28T21:20:06.508Z,4.87
2019-02-28T21:25:06.232Z,4.52
2019-02-28T21:30:08.550Z,4.71
2019-02-28T21:34:06.840Z,5.28
2019-02-28T21:39:07.633Z,5.23
2019-02-28T21:44:06.383Z,4.53
2019-02-28T21:49:07.343Z,4.16
2019-02-28T21:54:06.056Z,4.24
2019-02-28T21:59:06.495Z,4.98
2019-02-28T22:04:06.501Z,4.92
2019-02-28T22:09:07.217Z,4.67
2019-02-28T22:13:06.941Z,4.35
2019-02-28T22:18:07.113Z,4.19
2019-02-28T22:23:07.005Z,3.41
2019-02-28T22:28:06.202Z,2.87
2019-02-28T22:33:06.555Z,2.66
2019-02-28T22:38:06.167Z,2.6
2019-02-28T22:43:07.041Z,2.09
2019-02-28T22:47:06.802Z,2.13
2019-02-28T22:52:07.160Z,2.37
2019-02-28T22:57:06.824Z,2.13
2019-02-28T23:02:06.539Z,2.4
2019-02-28T23:07:06.528Z,3.65
2019-02-28T23:12:07.483Z,4.07
2019-02-28T23:17:06.647Z,4.33
2019-02-28T23:22:07.359Z,4.6
2019-02-28T23:26:06.816Z,4.69
2019-02-28T23:31:07.321Z,4.68
2019-02-28T23:36:06.781Z,4.72
2019-02-28T23:41:06.912Z,4.79
2019-02-28T23:46:06.868Z,4.97
2019-02-28T23:51:07.488Z,5.01
2019-02-28T23:56:06.859Z,4.94
